South Bend, Nebraska
Current Conditions -  °F | °C
As of 12:35 PM on Monday 22 Dec 2014 (Local Time) from KMLE Reporting Station
Light Rain Light Rain  
Wind Chill:   Ceiling: 700
Heat Index:   Visibility: 7mi
Dew Point:   Wind: 5mph
Humidity: 93%   Direction: 160°SSE
Pressure: 29.43"   Gusts: NA
Location:  41°N, 96.25°W
Report Text: KMLE 221835Z AUTO 16004KT 7SM -RA OVC007 06/05 A2943 RMK AO2 P0004 T00610051
Loading
Personal Weather Stations






























Interactive Weather Map New forecast layout! Learn more

10-Day Weather Forecast

Advertisements
Track Severe Weather on mobile